West View, Pennsylvania
Current Conditions -  °F | °C
As of 4:51 AM on Saturday 25 Oct 2014 (Local Time) from KPIT Reporting Station
Few Clouds Few Clouds  
Wind Chill:   Ceiling: Unl
Heat Index:   Visibility: 10mi
Dew Point:   Wind: 3mph
Humidity: 71%   Direction: 230°SW
Pressure: 29.96"   Gusts: NA
Location:  40.5198°N, 80.0388°W
Report Text: KPIT 250851Z 23003KT 10SM FEW046 09/04 A2996 RMK AO2 SLP153 T00940044 58011
Loading
Personal Weather Stations






























Interactive Weather Map
Tropical Storm Tracking
New forecast layout! Learn more

10-Day Weather Forecast

Advertisements
Track Severe Weather on mobile